Main page
METAR-TAF:

METAR-TAF

Airports :

Brenner Field

Falls City, Nebraska, United States

latitude: 40-04-44N, longitude: 095-35-31W, elevation: 984 ft

Current weather observation

The report was made 42 minutes ago, at 01:53 UTC
Wind 9 mph from the South
Temperature 46°F
Humidity 25%
Pressure 30.07 in. Hg
Visibility: 10 miles
Clear sky

METAR: KFNB 010153Z AUTO 18008KT 10SM CLR 08/M11 A3007 RMK AO2 SLP187 T00781111

Time: 20:35 (02:35 UTC)


TAF: missing

Weather observations and forecasts of more than 4000 airports (METAR and TAF reports).

The available stations are represented by yellow and red dots on the map.

Hover mouse over dot to see the name of the station.

Then click to see weather observations and forecasts.

To change the map : click on the green buttons with a black cross to zoom in, on the green button with a dash to zoom out, or on the green arrows for adjacent maps.


METAR-TAF: